Time;durP1;ratioP1;P1;durP2;ratioP2;P2;SDS_P1;SDS_P2;PMS_P1;PMS_P2;Temp;Humidity;BMP_temperature;BMP_pressure;BME280_temperature;BME280_humidity;BME280_pressure;Samples;Min_cycle;Max_cycle;Signal;HPM_P1;HPM_P2
2023/01/23 00:00:33;;;;;;;2.22;1.20;;;2.30;99.90;;;;;;5056762;28;20075;-86
2023/01/23 00:02:59;;;;;;;0.40;0.40;;;2.40;99.90;;;;;;5057254;28;20069;-86
2023/01/23 00:05:25;;;;;;;0.30;0.30;;;2.30;99.90;;;;;;5056835;28;20096;-86
2023/01/23 00:07:50;;;;;;;0.30;0.30;;;2.30;99.90;;;;;;5054559;28;20036;-87
2023/01/23 00:10:16;;;;;;;0.60;0.40;;;2.30;99.90;;;;;;5055575;28;20047;-86
2023/01/23 00:12:43;;;;;;;0.25;0.25;;;2.30;99.90;;;;;;5055810;28;20041;-87
2023/01/23 00:15:11;;;;;;;0.88;0.65;;;2.40;99.90;;;;;;5055927;28;20049;-87
2023/01/23 00:17:37;;;;;;;0.00;0.00;;;2.30;99.90;;;;;;5055695;28;20134;-86
2023/01/23 00:20:03;;;;;;;0.00;0.00;;;2.40;99.90;;;;;;5056348;28;20037;-87
2023/01/23 00:22:29;;;;;;;0.63;0.63;;;2.40;99.90;;;;;;5056039;28;20081;-86
2023/01/23 00:24:54;;;;;;;0.93;0.93;;;2.30;99.90;;;;;;5056034;28;20088;-87
2023/01/23 00:27:20;;;;;;;0.10;0.10;;;2.30;99.90;;;;;;5054534;28;20052;-87
2023/01/23 00:29:46;;;;;;;2.20;1.75;;;2.30;99.90;;;;;;5056132;28;20077;-86
2023/01/23 00:32:12;;;;;;;0.80;0.52;;;2.40;99.90;;;;;;5056023;28;20049;-86
2023/01/23 00:34:38;;;;;;;0.20;0.20;;;2.30;99.90;;;;;;5056333;28;20101;-86
2023/01/23 00:37:04;;;;;;;0.20;0.20;;;2.30;99.90;;;;;;5055492;28;20073;-87
2023/01/23 00:39:30;;;;;;;0.00;0.00;;;2.30;99.90;;;;;;5055783;28;20041;-86
2023/01/23 00:41:55;;;;;;;0.10;0.10;;;2.30;99.90;;;;;;5055731;28;20037;-86
2023/01/23 00:44:21;;;;;;;0.25;0.25;;;2.30;99.90;;;;;;5055712;28;20064;-86
2023/01/23 00:46:47;;;;;;;0.40;0.40;;;2.40;99.90;;;;;;5055196;28;20398;-87
2023/01/23 00:49:13;;;;;;;0.10;0.10;;;2.30;99.90;;;;;;5055750;28;20053;-87
2023/01/23 00:51:39;;;;;;;0.75;0.70;;;2.30;99.90;;;;;;5055768;28;20044;-86
2023/01/23 00:54:05;;;;;;;0.00;0.00;;;2.30;99.90;;;;;;5054730;28;20043;-87
2023/01/23 00:56:30;;;;;;;2.63;1.20;;;2.30;99.90;;;;;;5053744;28;20048;-87
2023/01/23 00:58:56;;;;;;;0.38;0.38;;;2.30;99.90;;;;;;5055216;28;20128;-86
2023/01/23 01:01:22;;;;;;;0.13;0.13;;;2.30;99.90;;;;;;5054782;28;20049;-86
2023/01/23 01:03:48;;;;;;;0.00;0.00;;;2.40;99.90;;;;;;5055201;28;20526;-87
2023/01/23 01:06:14;;;;;;;2.78;0.75;;;2.40;99.90;;;;;;5055845;28;20047;-87
2023/01/23 01:08:40;;;;;;;0.20;0.20;;;2.30;99.90;;;;;;5055337;28;20120;-87
2023/01/23 01:11:06;;;;;;;1.30;1.10;;;2.40;99.90;;;;;;5055970;28;20037;-87
2023/01/23 01:13:32;;;;;;;31.35;1.13;;;2.40;99.90;;;;;;5056136;28;20045;-86
2023/01/23 01:16:00;;;;;;;0.00;0.00;;;2.30;99.90;;;;;;5055209;28;20037;-86
2023/01/23 01:18:27;;;;;;;2.40;0.77;;;2.40;99.90;;;;;;5055625;28;20045;-86
2023/01/23 01:20:53;;;;;;;0.38;0.38;;;2.30;99.90;;;;;;5055878;28;20041;-86
2023/01/23 01:23:19;;;;;;;1.08;0.68;;;2.30;99.90;;;;;;5055840;28;20449;-86
2023/01/23 01:25:45;;;;;;;0.10;0.10;;;2.30;99.90;;;;;;5055678;28;20041;-87
2023/01/23 01:28:11;;;;;;;0.98;0.88;;;2.30;99.90;;;;;;5055026;28;20037;-86
2023/01/23 01:30:38;;;;;;;0.68;0.68;;;2.40;99.90;;;;;;5055286;28;20056;-87
2023/01/23 01:33:04;;;;;;;0.85;0.80;;;2.40;99.90;;;;;;5055463;28;20045;-86
2023/01/23 01:35:30;;;;;;;1.00;1.00;;;2.40;99.90;;;;;;5055084;28;20045;-86
2023/01/23 01:37:55;;;;;;;0.10;0.10;;;2.40;99.90;;;;;;5055111;28;20045;-87
2023/01/23 01:40:25;;;;;;;0.77;0.77;;;2.40;99.90;;;;;;5054859;28;20045;-86
2023/01/23 01:42:58;;;;;;;1.58;1.48;;;2.40;99.90;;;;;;5055138;28;20041;-87
2023/01/23 01:46:01;;;;;;;0.10;0.10;;;2.30;99.90;;;;;;5055057;28;20044;-86
2023/01/23 01:48:33;;;;;;;0.20;0.20;;;2.30;99.90;;;;;;5059035;28;20460;-87
2023/01/23 01:51:00;;;;;;;2.40;1.60;;;2.30;99.90;;;;;;5058339;28;20406;-86
2023/01/23 01:53:29;;;;;;;0.08;0.08;;;2.30;99.90;;;;;;5058316;28;20112;-86
2023/01/23 01:55:56;;;;;;;0.00;0.00;;;2.20;99.90;;;;;;5058922;28;20096;-87
2023/01/23 01:58:22;;;;;;;0.50;0.50;;;2.20;99.90;;;;;;5058891;28;20068;-86
2023/01/23 02:00:48;;;;;;;0.40;0.40;;;2.20;99.90;;;;;;5059326;28;20033;-87
2023/01/23 02:03:15;;;;;;;0.85;0.85;;;2.20;99.90;;;;;;5058817;28;20044;-86
2023/01/23 02:05:46;;;;;;;1.30;0.75;;;2.20;99.90;;;;;;5057557;28;20044;-87
2023/01/23 02:08:34;;;;;;;0.40;0.40;;;2.20;99.90;;;;;;5058851;28;20037;-87
2023/01/23 02:11:02;;;;;;;1.40;0.95;;;2.20;99.90;;;;;;5058726;28;20494;-87
2023/01/23 02:13:38;;;;;;;0.85;0.70;;;2.20;99.90;;;;;;5059348;28;20041;-86
2023/01/23 02:16:05;;;;;;;;;;;2.20;99.90;;;;;;5059717;28;20041;-86
2023/01/23 02:18:33;;;;;;;8.30;1.27;;;2.20;99.90;;;;;;5039524;28;19925;-87
2023/01/23 02:21:05;;;;;;;0.50;0.50;;;2.20;99.90;;;;;;5040529;28;20102;-86
2023/01/23 02:23:42;;;;;;;0.20;0.20;;;2.20;99.90;;;;;;5040055;28;20045;-86
2023/01/23 02:26:15;;;;;;;0.15;0.15;;;2.10;99.90;;;;;;5053160;28;20048;-87
2023/01/23 02:28:47;;;;;;;0.57;0.55;;;2.10;99.90;;;;;;5058171;28;20056;-86
2023/01/23 02:31:14;;;;;;;0.47;0.47;;;2.20;99.90;;;;;;5059234;28;20052;-87
2023/01/23 02:33:42;;;;;;;1.17;1.08;;;2.20;99.90;;;;;;5058236;28;20098;-87
2023/01/23 02:36:08;;;;;;;0.43;0.43;;;2.20;99.90;;;;;;5059592;28;20605;-87
2023/01/23 02:38:41;;;;;;;0.00;0.00;;;2.10;99.90;;;;;;5058966;28;20490;-87
2023/01/23 02:41:10;;;;;;;0.38;0.38;;;2.20;99.90;;;;;;5058140;28;20053;-86
2023/01/23 02:43:37;;;;;;;1.08;0.98;;;2.10;99.90;;;;;;5059171;28;20407;-86
2023/01/23 02:46:08;;;;;;;0.50;0.50;;;2.20;99.90;;;;;;5059018;28;20067;-86
2023/01/23 02:48:38;;;;;;;0.00;0.00;;;2.20;99.90;;;;;;5058183;28;20505;-87
2023/01/23 02:51:05;;;;;;;0.95;0.95;;;2.20;99.90;;;;;;5057729;28;20049;-87
2023/01/23 02:53:31;;;;;;;1.33;1.23;;;2.20;99.90;;;;;;5058802;28;20444;-86
2023/01/23 02:55:58;;;;;;;0.00;0.00;;;2.20;99.90;;;;;;5059693;28;20037;-86
2023/01/23 03:01:08;;;;;;;0.85;0.85;;;2.20;99.90;;;;;;5058740;28;20182;-86
2023/01/23 03:03:34;;;;;;;0.45;0.43;;;2.20;99.90;;;;;;5058213;28;20037;-87
2023/01/23 03:06:02;;;;;;;0.20;0.20;;;2.20;99.90;;;;;;5057338;28;20116;-87
2023/01/23 03:08:32;;;;;;;4.18;1.60;;;3.10;99.90;;;;;;5056921;28;20040;-86
2023/01/23 03:10:59;;;;;;;0.15;0.15;;;2.10;99.90;;;;;;5058196;28;20041;-87
2023/01/23 03:13:25;;;;;;;0.63;0.63;;;2.10;99.90;;;;;;5057982;28;20492;-87
2023/01/23 03:15:53;;;;;;;0.10;0.10;;;2.10;99.90;;;;;;5057676;28;20079;-87
2023/01/23 03:18:19;;;;;;;0.28;0.28;;;2.10;99.90;;;;;;5057930;28;20036;-87
2023/01/23 03:20:45;;;;;;;3.17;2.57;;;2.10;99.90;;;;;;5057809;28;20505;-87
2023/01/23 03:23:10;;;;;;;0.50;0.50;;;2.80;99.90;;;;;;5057720;28;20185;-86
2023/01/23 03:25:36;;;;;;;0.93;0.63;;;2.10;99.90;;;;;;5057869;28;20041;-87
2023/01/23 03:28:02;;;;;;;0.20;0.20;;;2.10;99.90;;;;;;5057745;28;20036;-87
2023/01/23 03:30:28;;;;;;;0.20;0.20;;;2.10;99.90;;;;;;5058157;28;20043;-86
2023/01/23 03:32:53;;;;;;;0.52;0.52;;;2.10;99.90;;;;;;5057923;28;20406;-86
2023/01/23 03:35:19;;;;;;;0.22;0.22;;;2.10;99.90;;;;;;5057936;28;20037;-87
2023/01/23 03:37:48;;;;;;;0.03;0.03;;;2.10;99.90;;;;;;5057300;28;20045;-87
2023/01/23 03:43:07;;;;;;;0.63;0.43;;;2.10;99.90;;;;;;5057922;28;20111;-87
2023/01/23 03:45:33;;;;;;;0.20;0.20;;;2.10;99.90;;;;;;5058206;28;20079;-86
2023/01/23 03:47:59;;;;;;;0.50;0.50;;;2.20;99.90;;;;;;5057509;28;20057;-86
2023/01/23 03:50:24;;;;;;;1.45;1.35;;;2.10;99.90;;;;;;5057637;28;20045;-87
2023/01/23 03:52:50;;;;;;;2.17;1.95;;;2.10;99.90;;;;;;5057684;28;20037;-87
2023/01/23 03:55:15;;;;;;;0.10;0.10;;;2.10;99.90;;;;;;5057962;28;20041;-87
2023/01/23 03:57:41;;;;;;;2.72;1.65;;;2.10;99.90;;;;;;5057683;28;20131;-86
2023/01/23 04:00:07;;;;;;;0.47;0.47;;;2.10;99.90;;;;;;5057698;28;20037;-87
2023/01/23 04:02:33;;;;;;;1.38;0.95;;;2.10;99.90;;;;;;5056629;28;20067;-86
2023/01/23 04:04:58;;;;;;;0.33;0.33;;;2.10;99.90;;;;;;5057397;28;20045;-86
2023/01/23 04:07:24;;;;;;;0.30;0.30;;;2.10;99.90;;;;;;5056579;28;20124;-86
2023/01/23 04:09:49;;;;;;;2.15;1.58;;;2.10;99.90;;;;;;5056003;28;20163;-87
2023/01/23 04:12:15;;;;;;;0.05;0.05;;;2.10;99.90;;;;;;5056776;28;20041;-86
2023/01/23 04:14:41;;;;;;;0.35;0.35;;;2.10;99.90;;;;;;5056656;28;20270;-87
2023/01/23 04:17:07;;;;;;;1.63;1.43;;;2.10;99.90;;;;;;5056381;28;20040;-87
2023/01/23 04:19:33;;;;;;;0.52;0.22;;;2.00;99.90;;;;;;5056432;28;20036;-86
2023/01/23 04:21:59;;;;;;;0.10;0.10;;;2.10;99.90;;;;;;5055887;28;20047;-87
2023/01/23 04:24:26;;;;;;;2.73;0.67;;;2.10;99.90;;;;;;5056460;28;20505;-87
2023/01/23 04:26:52;;;;;;;0.53;0.40;;;2.10;99.90;;;;;;5055978;28;20044;-87
2023/01/23 04:29:17;;;;;;;1.25;0.63;;;2.10;99.90;;;;;;5056191;28;20041;-86
2023/01/23 04:31:43;;;;;;;0.85;0.57;;;2.10;99.90;;;;;;5056587;28;20041;-87
2023/01/23 04:34:08;;;;;;;1.20;1.13;;;2.00;99.90;;;;;;5057020;28;20051;-86
2023/01/23 04:36:34;;;;;;;0.30;0.30;;;2.00;99.90;;;;;;5056199;28;20116;-86
2023/01/23 04:39:00;;;;;;;0.70;0.38;;;2.00;99.90;;;;;;5054527;28;20071;-86
2023/01/23 04:41:27;;;;;;;0.10;0.10;;;2.00;99.90;;;;;;5057240;28;20032;-87
2023/01/23 04:43:53;;;;;;;0.00;0.00;;;2.00;99.90;;;;;;5055658;28;20046;-86
2023/01/23 04:46:19;;;;;;;1.17;1.10;;;2.00;99.90;;;;;;5055887;28;20052;-87
2023/01/23 04:48:45;;;;;;;0.47;0.47;;;1.90;99.90;;;;;;5056127;28;20167;-86
2023/01/23 04:51:10;;;;;;;0.10;0.10;;;2.00;99.90;;;;;;5056389;28;20064;-87
2023/01/23 04:53:36;;;;;;;0.90;0.90;;;1.90;99.90;;;;;;5056683;28;20037;-87
2023/01/23 04:56:03;;;;;;;8.77;1.70;;;1.90;99.90;;;;;;5054848;28;20548;-86
2023/01/23 04:58:28;;;;;;;0.30;0.30;;;1.90;99.90;;;;;;5056428;28;20101;-86
2023/01/23 05:00:54;;;;;;;0.80;0.80;;;1.90;99.90;;;;;;5056471;28;20095;-86
2023/01/23 05:03:19;;;;;;;0.00;0.00;;;1.90;99.90;;;;;;5056180;28;20052;-87
2023/01/23 05:05:46;;;;;;;1.23;0.82;;;1.90;99.90;;;;;;5056554;28;20079;-86
2023/01/23 05:08:12;;;;;;;0.00;0.00;;;1.90;99.90;;;;;;5056110;28;20115;-87
2023/01/23 05:10:38;;;;;;;0.10;0.10;;;1.90;99.90;;;;;;5055871;28;20041;-87
2023/01/23 05:13:04;;;;;;;1.65;1.55;;;1.90;99.90;;;;;;5055366;28;20098;-87
2023/01/23 05:15:30;;;;;;;0.73;0.73;;;1.90;99.90;;;;;;5054825;28;20483;-87
2023/01/23 05:17:56;;;;;;;0.20;0.20;;;1.90;99.90;;;;;;5054559;28;20126;-86
2023/01/23 05:20:24;;;;;;;0.77;0.55;;;1.80;99.90;;;;;;5055679;28;20037;-87
2023/01/23 05:22:51;;;;;;;3.78;1.50;;;1.80;99.90;;;;;;5058780;28;20052;-86
2023/01/23 05:25:27;;;;;;;0.50;0.50;;;1.80;99.90;;;;;;5058542;28;20065;-86
2023/01/23 05:27:53;;;;;;;;;;;1.80;99.90;;;;;;5052421;28;20084;-87
2023/01/23 05:30:21;;;;;;;0.10;0.10;;;1.80;99.90;;;;;;5051084;28;19971;-87
2023/01/23 05:32:47;;;;;;;1.77;1.27;;;1.90;99.90;;;;;;5055937;28;20067;-86
2023/01/23 05:35:13;;;;;;;0.10;0.10;;;1.80;99.90;;;;;;5052850;28;20414;-86
2023/01/23 05:37:39;;;;;;;0.20;0.20;;;3.10;99.90;;;;;;5051562;28;20049;-87
2023/01/23 05:40:07;;;;;;;1.40;1.30;;;1.80;99.90;;;;;;5053694;28;20121;-87
2023/01/23 05:42:33;;;;;;;0.10;0.10;;;1.90;99.90;;;;;;5045793;28;20037;-86
2023/01/23 05:44:59;;;;;;;0.05;0.05;;;1.80;99.90;;;;;;5058974;28;20055;-87
2023/01/23 05:47:25;;;;;;;2.72;0.90;;;1.90;99.90;;;;;;5043014;28;20562;-87
2023/01/23 05:49:50;;;;;;;0.05;0.05;;;1.80;99.90;;;;;;5050149;28;20063;-87
2023/01/23 05:52:16;;;;;;;0.65;0.65;;;1.90;99.90;;;;;;5059302;28;20094;-87
2023/01/23 05:54:41;;;;;;;0.28;0.28;;;1.90;99.90;;;;;;5058718;28;20041;-86
2023/01/23 05:57:08;;;;;;;0.90;0.90;;;1.90;99.90;;;;;;5058405;28;20037;-87
2023/01/23 05:59:34;;;;;;;0.47;0.45;;;1.90;99.90;;;;;;5059169;28;20055;-87
2023/01/23 06:02:00;;;;;;;0.38;0.38;;;1.80;99.90;;;;;;5056584;28;20461;-86
2023/01/23 06:04:26;;;;;;;1.17;0.93;;;1.90;99.90;;;;;;5056165;28;20045;-86
2023/01/23 06:06:52;;;;;;;0.00;0.00;;;1.80;99.90;;;;;;5048997;28;20414;-86
2023/01/23 06:09:17;;;;;;;1.23;1.20;;;1.80;99.90;;;;;;5048955;28;20264;-86
2023/01/23 06:11:43;;;;;;;0.10;0.10;;;1.80;99.90;;;;;;5056049;28;20048;-87
2023/01/23 06:14:09;;;;;;;0.03;0.03;;;1.70;99.90;;;;;;5054821;28;20510;-87
2023/01/23 06:16:34;;;;;;;0.55;0.55;;;1.70;99.90;;;;;;5042241;28;20049;-87
2023/01/23 06:19:00;;;;;;;0.00;0.00;;;1.70;99.90;;;;;;5056553;28;20037;-86
2023/01/23 06:21:25;;;;;;;0.28;0.28;;;1.60;99.90;;;;;;5055900;28;20407;-86
2023/01/23 06:23:51;;;;;;;0.55;0.55;;;1.60;99.90;;;;;;5056034;28;20133;-87
2023/01/23 06:26:16;;;;;;;1.08;0.93;;;1.60;99.90;;;;;;5046878;28;20041;-87
2023/01/23 06:28:42;;;;;;;0.70;0.70;;;1.60;99.90;;;;;;5036998;28;20041;-86
2023/01/23 06:31:09;;;;;;;0.35;0.35;;;1.70;99.90;;;;;;5033909;28;20041;-86
2023/01/23 06:33:38;;;;;;;2.63;1.45;;;1.70;99.90;;;;;;5036815;28;20045;-87
2023/01/23 06:36:05;;;;;;;0.43;0.43;;;1.70;99.90;;;;;;5038019;28;20073;-87
2023/01/23 06:38:31;;;;;;;0.43;0.43;;;1.70;99.90;;;;;;5037722;28;20042;-86
2023/01/23 06:40:57;;;;;;;0.53;0.53;;;1.70;99.90;;;;;;5038260;28;20446;-87
2023/01/23 06:43:23;;;;;;;0.35;0.32;;;1.80;99.90;;;;;;5036238;28;20526;-87
2023/01/23 06:45:49;;;;;;;0.10;0.10;;;1.70;99.90;;;;;;5036408;28;20081;-86
2023/01/23 06:48:15;;;;;;;0.28;0.28;;;1.80;99.90;;;;;;5036183;28;20494;-87
2023/01/23 06:50:42;;;;;;;1.35;0.73;;;1.80;99.90;;;;;;5036278;28;20411;-86
2023/01/23 06:53:14;;;;;;;2.25;2.05;;;1.70;99.90;;;;;;5036439;28;20388;-86
2023/01/23 06:55:39;;;;;;;0.15;0.15;;;1.70;99.90;;;;;;5036292;28;20042;-87
2023/01/23 06:58:06;;;;;;;0.50;0.50;;;1.70;99.90;;;;;;5036045;28;20054;-87
2023/01/23 07:00:34;;;;;;;0.00;0.00;;;1.70;99.90;;;;;;5036678;28;20530;-86
2023/01/23 07:03:02;;;;;;;0.50;0.50;;;1.70;99.90;;;;;;5037202;28;20049;-86
2023/01/23 07:05:29;;;;;;;0.95;0.50;;;1.70;99.90;;;;;;5037074;28;20059;-87
2023/01/23 07:07:54;;;;;;;0.30;0.30;;;1.80;99.90;;;;;;5036892;28;20471;-86
2023/01/23 07:10:22;;;;;;;1.02;0.85;;;1.80;99.90;;;;;;5036312;28;20048;-86
2023/01/23 07:12:49;;;;;;;0.20;0.20;;;1.80;99.90;;;;;;5037420;28;20414;-87
2023/01/23 07:15:15;;;;;;;0.32;0.32;;;1.90;99.90;;;;;;5056263;28;20083;-87
2023/01/23 07:17:41;;;;;;;1.15;1.08;;;1.80;99.90;;;;;;5056801;28;20111;-87
2023/01/23 07:20:08;;;;;;;0.47;0.47;;;1.90;99.90;;;;;;5056960;28;20517;-87
2023/01/23 07:22:33;;;;;;;0.45;0.45;;;1.90;99.90;;;;;;5056656;28;20037;-87
2023/01/23 07:24:59;;;;;;;0.30;0.30;;;1.90;99.90;;;;;;5050266;28;20063;-86
2023/01/23 07:27:24;;;;;;;0.93;0.93;;;1.90;99.90;;;;;;5045017;28;20037;-87
2023/01/23 07:29:50;;;;;;;0.90;0.87;;;1.90;99.90;;;;;;5037125;28;20057;-86
2023/01/23 07:32:16;;;;;;;0.10;0.10;;;1.90;99.90;;;;;;5037272;28;20080;-86
2023/01/23 07:34:41;;;;;;;0.57;0.57;;;2.00;99.90;;;;;;5037168;28;20045;-86
2023/01/23 07:37:07;;;;;;;0.10;0.10;;;2.00;99.90;;;;;;5035222;28;20056;-87
2023/01/23 07:39:32;;;;;;;1.52;1.33;;;2.00;99.90;;;;;;5034509;28;20045;-87
2023/01/23 07:41:58;;;;;;;1.25;1.15;;;2.00;99.90;;;;;;5036644;28;20056;-87
2023/01/23 07:44:24;;;;;;;1.85;1.40;;;2.00;99.90;;;;;;5038430;28;20041;-87
2023/01/23 07:46:49;;;;;;;0.17;0.17;;;2.00;99.90;;;;;;5052490;28;20080;-87
2023/01/23 07:49:15;;;;;;;0.38;0.38;;;2.00;99.90;;;;;;5037110;28;20033;-86
2023/01/23 07:51:41;;;;;;;0.35;0.35;;;2.00;99.90;;;;;;5037409;28;20079;-86
2023/01/23 07:54:07;;;;;;;1.75;1.02;;;2.00;99.90;;;;;;5037044;28;20041;-86
2023/01/23 07:56:33;;;;;;;1.05;1.05;;;2.00;99.90;;;;;;5037246;28;20060;-87
2023/01/23 07:58:59;;;;;;;0.10;0.10;;;2.00;99.90;;;;;;5037050;28;20053;-86
2023/01/23 08:01:25;;;;;;;0.75;0.70;;;2.10;99.90;;;;;;5036930;28;20348;-86
2023/01/23 08:03:52;;;;;;;0.10;0.10;;;2.10;99.90;;;;;;5036701;28;20249;-86
2023/01/23 08:06:17;;;;;;;0.70;0.70;;;2.10;99.90;;;;;;5036180;28;20050;-87
2023/01/23 08:08:43;;;;;;;0.13;0.13;;;2.10;99.90;;;;;;5048663;28;20045;-87
2023/01/23 08:11:10;;;;;;;0.98;0.82;;;2.10;99.90;;;;;;5042918;28;20049;-87
2023/01/23 08:13:36;;;;;;;0.77;0.77;;;2.10;99.90;;;;;;5052285;28;20063;-87
2023/01/23 08:16:01;;;;;;;0.05;0.05;;;2.10;99.90;;;;;;5038567;28;20132;-87
2023/01/23 08:18:29;;;;;;;0.13;0.13;;;2.10;99.90;;;;;;5037977;28;20093;-87
2023/01/23 08:20:55;;;;;;;0.45;0.45;;;2.20;99.90;;;;;;5045315;28;20036;-87
2023/01/23 08:23:24;;;;;;;0.22;0.22;;;2.20;99.90;;;;;;5047751;28;20064;-87
2023/01/23 08:25:54;;;;;;;0.55;0.55;;;2.20;99.90;;;;;;5050176;28;20501;-87
2023/01/23 08:28:20;;;;;;;1.25;0.75;;;2.30;99.90;;;;;;5055007;28;20058;-88
2023/01/23 08:30:45;;;;;;;0.10;0.10;;;2.30;99.90;;;;;;5055445;28;20099;-87
2023/01/23 08:33:11;;;;;;;0.10;0.10;;;2.30;99.90;;;;;;5047236;28;20522;-87
2023/01/23 08:35:37;;;;;;;0.20;0.20;;;2.40;99.90;;;;;;5033122;28;20088;-87
2023/01/23 08:38:03;;;;;;;0.40;0.40;;;2.40;99.90;;;;;;5031200;28;20045;-86
2023/01/23 08:40:29;;;;;;;0.10;0.10;;;2.40;99.90;;;;;;5046495;28;20045;-87
2023/01/23 08:42:54;;;;;;;2.80;1.10;;;2.50;99.90;;;;;;5066400;28;20057;-87
2023/01/23 08:45:21;;;;;;;0.80;0.47;;;2.50;99.90;;;;;;5050978;28;20502;-86
2023/01/23 08:47:47;;;;;;;0.52;0.52;;;2.50;99.90;;;;;;5050419;28;20068;-86
2023/01/23 08:50:13;;;;;;;1.13;0.30;;;2.60;99.90;;;;;;5052746;28;20049;-86
2023/01/23 08:52:39;;;;;;;0.10;0.10;;;2.60;2.20;;;;;;5051111;28;20041;-86
2023/01/23 08:55:05;;;;;;;0.00;0.00;;;2.70;1.00;;;;;;5050523;28;20040;-87
2023/01/23 08:57:30;;;;;;;0.43;0.30;;;2.70;99.90;;;;;;5048193;28;20045;-87
2023/01/23 08:59:56;;;;;;;0.05;0.05;;;2.70;1.00;;;;;;5048667;28;20616;-87
2023/01/23 09:02:21;;;;;;;0.30;0.30;;;2.80;99.90;;;;;;5050310;28;20080;-87
2023/01/23 09:04:47;;;;;;;3.60;1.27;;;3.60;52.40;;;;;;5049543;28;20112;-87
2023/01/23 09:07:13;;;;;;;0.63;0.55;;;2.90;1.00;;;;;;5049385;28;20047;-87
2023/01/23 09:09:38;;;;;;;0.20;0.20;;;2.90;99.90;;;;;;5049462;28;20041;-87
2023/01/23 09:12:04;;;;;;;0.85;0.30;;;2.90;99.90;;;;;;5049177;28;20057;-87
2023/01/23 09:14:30;;;;;;;0.45;0.28;;;3.00;1.00;;;;;;5049622;28;20049;-87
2023/01/23 09:16:55;;;;;;;0.50;0.50;;;3.00;1.00;;;;;;5049440;28;20048;-87
2023/01/23 09:19:21;;;;;;;0.30;0.30;;;3.10;1.00;;;;;;5048319;28;20072;-87
2023/01/23 09:21:47;;;;;;;0.00;0.00;;;3.10;99.90;;;;;;5049216;28;20045;-87
2023/01/23 09:24:12;;;;;;;0.00;0.00;;;3.10;99.90;;;;;;5050397;28;20041;-87
2023/01/23 09:26:38;;;;;;;0.65;0.60;;;3.20;1.00;;;;;;5050129;28;20076;-86
2023/01/23 09:29:03;;;;;;;0.10;0.10;;;3.20;1.00;;;;;;5049525;28;20037;-86
2023/01/23 09:31:29;;;;;;;1.02;0.55;;;3.30;99.90;;;;;;5049250;28;20078;-87
2023/01/23 09:33:55;;;;;;;0.30;0.30;;;3.30;99.90;;;;;;5049040;28;20036;-87
2023/01/23 09:36:21;;;;;;;0.45;0.45;;;3.40;1.00;;;;;;5050677;28;20052;-87
2023/01/23 09:38:49;;;;;;;0.15;0.15;;;3.50;1.00;;;;;;5050087;28;20130;-87
2023/01/23 09:41:28;;;;;;;0.20;0.20;;;3.50;1.00;;;;;;5048929;28;20094;-87
2023/01/23 09:44:06;;;;;;;0.00;0.00;;;4.10;99.90;;;;;;5048707;28;20041;-87
2023/01/23 09:46:50;;;;;;;0.25;0.25;;;3.50;33.80;;;;;;5029237;28;20048;-86
2023/01/23 09:49:29;;;;;;;0.70;0.70;;;3.60;99.90;;;;;;5048585;28;20037;-87
2023/01/23 09:52:06;;;;;;;0.10;0.10;;;3.60;99.90;;;;;;5048532;28;20056;-87
2023/01/23 09:54:36;;;;;;;0.15;0.15;;;3.60;1.00;;;;;;5048469;28;20109;-86
2023/01/23 09:57:11;;;;;;;0.20;0.20;;;3.80;99.90;;;;;;5060225;28;20075;-87
2023/01/23 09:59:39;;;;;;;0.05;0.05;;;3.70;18.30;;;;;;5047229;28;20152;-86
2023/01/23 10:02:18;;;;;;;0.13;0.13;;;3.80;99.90;;;;;;5048480;28;20152;-87
2023/01/23 10:04:45;;;;;;;0.30;0.30;;;3.90;1.00;;;;;;5048589;28;20052;-87
2023/01/23 10:07:43;;;;;;;0.43;0.43;;;3.80;99.90;;;;;;5050165;28;20052;-87
2023/01/23 10:10:50;;;;;;;0.10;0.10;;;3.90;1.00;;;;;;5052328;28;20570;-87
2023/01/23 10:13:32;;;;;;;0.00;0.00;;;3.90;80.70;;;;;;5052140;28;20048;-86
2023/01/23 10:16:16;;;;;;;0.47;0.47;;;3.90;1.00;;;;;;5052361;28;20041;-87
2023/01/23 10:19:13;;;;;;;0.28;0.22;;;4.00;99.90;;;;;;5050084;28;20128;-87
2023/01/23 10:21:47;;;;;;;1.15;0.77;;;4.00;99.90;;;;;;5032491;28;20398;-88
2023/01/23 10:24:37;;;;;;;0.30;0.30;;;4.10;21.70;;;;;;5031222;28;20041;-87
2023/01/23 10:27:14;;;;;;;0.30;0.30;;;4.10;99.90;;;;;;5032210;28;20395;-87
2023/01/23 10:29:46;;;;;;;1.55;1.27;;;4.10;99.90;;;;;;5038152;28;20546;-87
2023/01/23 10:32:24;;;;;;;0.25;0.25;;;4.20;1.00;;;;;;5052633;28;20075;-87
2023/01/23 10:35:05;;;;;;;0.20;0.20;;;4.20;1.00;;;;;;5052079;28;20041;-87
2023/01/23 10:37:55;;;;;;;0.85;0.85;;;4.20;1.00;;;;;;5052005;28;20044;-87
2023/01/23 10:43:16;;;;;;;0.00;0.00;;;4.20;96.50;;;;;;5050719;28;20061;-87
2023/01/23 10:45:42;;;;;;;0.17;0.17;;;4.20;99.90;;;;;;5051630;28;20045;-87
2023/01/23 10:48:40;;;;;;;0.40;0.40;;;4.20;99.90;;;;;;5051225;28;20550;-87
2023/01/23 10:51:33;;;;;;;0.25;0.25;;;4.20;99.90;;;;;;5051568;28;20041;-87
2023/01/23 10:54:07;;;;;;;0.13;0.13;;;4.20;99.90;;;;;;5051880;28;20099;-87
2023/01/23 10:56:36;;;;;;;1.90;0.60;;;4.10;53.10;;;;;;5051389;28;20053;-87
2023/01/23 10:59:04;;;;;;;3.80;1.60;;;4.10;99.90;;;;;;5051046;28;20049;-87
2023/01/23 11:01:35;;;;;;;0.22;0.22;;;4.10;50.70;;;;;;5050183;28;20098;-87
2023/01/23 11:04:22;;;;;;;0.28;0.28;;;4.10;99.90;;;;;;5051690;28;20049;-87
2023/01/23 11:07:04;;;;;;;0.15;0.15;;;4.20;99.90;;;;;;5049913;28;20055;-87
2023/01/23 11:09:30;;;;;;;1.15;1.05;;;4.20;99.90;;;;;;5051150;28;20041;-87
2023/01/23 11:12:00;;;;;;;0.65;0.65;;;4.30;99.90;;;;;;5051185;28;20040;-87
2023/01/23 11:14:26;;;;;;;2.03;1.02;;;4.30;99.90;;;;;;5049704;28;20040;-87
2023/01/23 11:17:19;;;;;;;0.80;0.68;;;4.60;99.90;;;;;;5051006;28;20052;-87
2023/01/23 11:19:48;;;;;;;1.20;1.08;;;4.20;1.00;;;;;;5050695;28;20549;-87
2023/01/23 11:22:33;;;;;;;2.33;1.60;;;4.30;99.90;;;;;;5049523;28;20045;-86
2023/01/23 11:25:01;;;;;;;0.20;0.20;;;4.40;26.40;;;;;;5043513;28;20052;-87
2023/01/23 11:27:29;;;;;;;0.55;0.55;;;4.40;79.60;;;;;;5041782;28;20355;-86
2023/01/23 11:30:25;;;;;;;2.38;1.05;;;4.40;1.00;;;;;;5044413;28;20126;-86
2023/01/23 11:32:58;;;;;;;0.60;0.60;;;4.50;73.20;;;;;;5049400;28;20037;-86
2023/01/23 11:35:40;;;;;;;0.22;0.22;;;4.50;44.30;;;;;;5052000;28;20045;-86
2023/01/23 11:38:11;;;;;;;1.63;1.52;;;4.60;99.90;;;;;;5052015;28;20053;-86
2023/01/23 11:40:37;;;;;;;0.70;0.70;;;4.50;99.90;;;;;;5052245;28;20207;-86
2023/01/23 11:43:08;;;;;;;1.45;1.17;;;4.50;1.00;;;;;;5050802;28;20040;-86
2023/01/23 11:45:59;;;;;;;0.95;0.75;;;4.60;99.90;;;;;;5052310;28;20414;-87
2023/01/23 11:48:56;;;;;;;0.57;0.52;;;4.50;99.90;;;;;;5051624;28;20506;-87
2023/01/23 11:51:35;;;;;;;1.48;0.30;;;4.60;99.90;;;;;;5051795;28;20041;-86
2023/01/23 11:54:37;;;;;;;2.78;0.47;;;4.50;99.90;;;;;;5051993;28;20053;-87
2023/01/23 11:57:44;;;;;;;0.32;0.32;;;4.50;99.90;;;;;;5050272;28;20102;-87
2023/01/23 12:00:36;;;;;;;0.45;0.45;;;4.50;99.90;;;;;;5050334;28;20102;-87
2023/01/23 12:03:39;;;;;;;0.22;0.22;;;4.60;1.00;;;;;;5053228;28;20486;-87
2023/01/23 12:06:43;;;;;;;1.35;1.23;;;4.40;99.90;;;;;;5051662;28;20044;-87
2023/01/23 12:09:17;;;;;;;0.03;0.03;;;4.40;1.70;;;;;;5051007;28;20051;-87
2023/01/23 12:12:06;;;;;;;1.08;1.00;;;4.40;99.90;;;;;;5051171;28;20052;-87
2023/01/23 12:15:00;;;;;;;3.55;1.13;;;4.30;99.90;;;;;;5051428;28;20445;-87
2023/01/23 12:17:35;;;;;;;0.55;0.55;;;4.30;99.90;;;;;;5051218;28;20048;-87
2023/01/23 12:20:21;;;;;;;1.13;1.02;;;4.30;99.90;;;;;;5051248;28;20498;-87
2023/01/23 12:23:07;;;;;;;0.80;0.50;;;4.30;99.90;;;;;;5051029;28;20054;-87
2023/01/23 12:25:35;;;;;;;0.20;0.20;;;4.30;1.00;;;;;;5051499;28;20505;-87
2023/01/23 12:28:17;;;;;;;0.05;0.05;;;4.20;72.60;;;;;;5050790;28;20418;-87
2023/01/23 12:30:56;;;;;;;0.20;0.20;;;4.30;99.90;;;;;;5049397;28;20462;-87
2023/01/23 12:34:29;;;;;;;0.90;0.85;;;4.20;99.90;;;;;;5049740;28;20410;-87
2023/01/23 12:37:12;;;;;;;0.25;0.25;;;4.30;1.00;;;;;;4952127;28;20051;-87
2023/01/23 12:40:11;;;;;;;0.43;0.43;;;4.30;99.90;;;;;;5043369;28;20060;-87
2023/01/23 12:43:07;;;;;;;0.20;0.20;;;4.20;56.80;;;;;;5037868;28;20061;-87
2023/01/23 12:45:33;;;;;;;0.70;0.55;;;4.20;99.90;;;;;;5052579;28;20051;-87
2023/01/23 12:48:08;;;;;;;2.20;1.40;;;4.20;99.90;;;;;;5053062;28;20049;-87
2023/01/23 12:50:48;;;;;;;0.88;0.82;;;4.20;99.90;;;;;;5052854;28;20132;-87
2023/01/23 12:53:17;;;;;;;2.10;1.00;;;4.20;99.90;;;;;;5052239;28;20052;-86
2023/01/23 12:56:05;;;;;;;0.55;0.55;;;4.10;99.90;;;;;;5052483;28;20037;-87
2023/01/23 12:58:39;;;;;;;0.52;0.52;;;4.20;1.00;;;;;;5052421;28;20064;-87
2023/01/23 13:01:27;;;;;;;1.08;0.93;;;4.10;73.10;;;;;;5052373;28;20045;-86
2023/01/23 13:04:00;;;;;;;0.38;0.38;;;4.10;99.90;;;;;;5052518;28;20402;-86
2023/01/23 13:06:57;;;;;;;1.55;0.77;;;4.10;99.90;;;;;;5052697;28;20049;-86
2023/01/23 13:09:35;;;;;;;0.47;0.47;;;4.10;99.90;;;;;;5051644;28;20049;-87
2023/01/23 13:12:20;;;;;;;0.45;0.45;;;4.10;99.90;;;;;;5052182;28;20085;-87
2023/01/23 13:15:16;;;;;;;1.60;0.70;;;4.10;99.90;;;;;;5054065;28;20114;-87
2023/01/23 13:17:57;;;;;;;0.52;0.50;;;4.10;1.00;;;;;;5054212;28;20067;-87
2023/01/23 13:23:30;;;;;;;1.50;1.40;;;4.00;99.90;;;;;;5053740;28;20057;-86
2023/01/23 13:26:21;;;;;;;0.35;0.35;;;4.00;99.90;;;;;;5054968;28;20055;-87